Time;durP1;ratioP1;P1;durP2;ratioP2;P2;SDS_P1;SDS_P2;PMS_P1;PMS_P2;Temp;Humidity;BMP_temperature;BMP_pressure;BME280_temperature;BME280_humidity;BME280_pressure;Samples;Min_cycle;Max_cycle;Signal;HPM_P1;HPM_P2
2022/01/27 00:00:49;;;;;;;7.53;4.43;;;21.30;68.20;;;;;;7811328;28;20195;-54
2022/01/27 00:04:39;;;;;;;7.25;4.18;;;21.20;68.20;;;;;;7811752;28;20213;-51
2022/01/27 00:08:52;;;;;;;8.45;4.50;;;21.10;68.10;;;;;;7811154;28;20213;-51
2022/01/27 00:12:30;;;;;;;8.95;4.68;;;21.10;68.20;;;;;;7811293;28;20199;-53
2022/01/27 00:16:22;;;;;;;9.85;4.63;;;21.00;68.20;;;;;;7811145;28;20207;-51
2022/01/27 00:20:08;;;;;;;8.25;4.53;;;21.00;68.20;;;;;;7810955;28;20198;-51
2022/01/27 00:23:54;;;;;;;7.63;4.38;;;21.00;68.20;;;;;;7811018;28;20183;-53
2022/01/27 00:27:40;;;;;;;6.93;4.40;;;20.90;68.10;;;;;;7810773;28;20272;-53
2022/01/27 00:31:25;;;;;;;6.70;4.55;;;20.90;68.20;;;;;;7810950;28;20175;-55
2022/01/27 00:35:11;;;;;;;7.13;4.60;;;20.90;68.10;;;;;;7810741;28;20297;-55
2022/01/27 00:38:57;;;;;;;6.13;4.05;;;20.80;68.10;;;;;;7810337;28;20198;-53
2022/01/27 00:42:43;;;;;;;7.78;4.10;;;20.80;68.20;;;;;;7810701;28;20596;-55
2022/01/27 00:46:31;;;;;;;6.43;4.47;;;20.80;68.20;;;;;;7810450;28;20232;-51
2022/01/27 00:50:19;;;;;;;6.22;4.40;;;20.70;68.20;;;;;;7810546;28;20230;-55
2022/01/27 00:54:09;;;;;;;6.22;4.28;;;20.70;68.30;;;;;;7810271;28;20182;-54
2022/01/27 00:58:04;;;;;;;7.15;4.20;;;20.60;68.20;;;;;;7810274;28;20201;-52
2022/01/27 01:02:06;;;;;;;9.00;4.18;;;20.60;68.30;;;;;;7810491;28;20186;-50
2022/01/27 01:14:31;;;;;;;5.13;4.00;;;20.50;68.40;;;;;;7805812;28;20281;-55
2022/01/27 01:29:25;;;;;;;6.55;4.07;;;20.40;68.40;;;;;;7805494;28;20616;-51
2022/01/27 01:30:34;;;;;;;5.65;3.88;;;20.30;68.40;;;;;;7804875;28;20206;-51
2022/01/27 01:34:23;;;;;;;6.47;4.25;;;20.30;68.50;;;;;;7804980;28;20676;-53
2022/01/27 01:38:09;;;;;;;5.53;4.05;;;20.30;68.50;;;;;;7804519;28;20195;-53
2022/01/27 01:41:55;;;;;;;6.40;3.95;;;20.20;68.50;;;;;;7804987;28;20675;-53
2022/01/27 01:45:41;;;;;;;5.63;4.10;;;20.20;68.50;;;;;;7808567;28;20198;-50
2022/01/27 01:49:27;;;;;;;6.47;4.05;;;20.20;68.60;;;;;;7808237;28;20199;-52
2022/01/27 01:53:12;;;;;;;6.90;4.75;;;20.10;68.50;;;;;;7808368;28;20644;-54
2022/01/27 01:56:59;;;;;;;7.40;4.35;;;20.10;68.50;;;;;;7808209;28;20630;-52
2022/01/27 02:00:44;;;;;;;6.97;4.50;;;20.10;68.60;;;;;;7808056;28;20668;-51
2022/01/27 02:04:30;;;;;;;5.97;4.18;;;20.10;68.50;;;;;;7808205;28;20647;-54
2022/01/27 02:20:37;;;;;;;5.97;4.15;;;19.90;68.70;;;;;;7807473;28;20221;-51
2022/01/27 02:24:25;;;;;;;6.03;3.97;;;19.90;68.60;;;;;;7807634;28;20676;-50
2022/01/27 02:28:10;;;;;;;6.10;4.03;;;19.90;68.70;;;;;;7807388;28;20198;-54
2022/01/27 02:31:59;;;;;;;5.05;3.85;;;19.90;68.70;;;;;;7807532;28;20186;-52
2022/01/27 02:35:44;;;;;;;6.78;4.40;;;19.80;68.50;;;;;;7807359;28;20684;-52
2022/01/27 02:39:30;;;;;;;6.63;4.22;;;19.80;68.60;;;;;;7806977;28;20194;-55
2022/01/27 02:43:16;;;;;;;5.95;3.78;;;19.80;68.60;;;;;;7807325;28;20640;-53
2022/01/27 02:47:02;;;;;;;6.97;4.25;;;19.80;68.60;;;;;;7807222;28;20202;-54
2022/01/27 02:50:47;;;;;;;5.97;4.22;;;19.70;68.70;;;;;;7807283;28;20198;-51
2022/01/27 02:54:33;;;;;;;5.88;3.90;;;19.70;68.60;;;;;;7807365;28;20612;-52
2022/01/27 02:58:18;;;;;;;6.63;4.50;;;19.70;68.70;;;;;;7806795;28;20234;-56
2022/01/27 03:02:04;;;;;;;6.05;3.90;;;19.70;68.70;;;;;;7807070;28;20170;-55
2022/01/27 03:05:50;;;;;;;8.25;4.30;;;19.60;68.60;;;;;;7807007;28;20205;-50
2022/01/27 03:09:36;;;;;;;7.18;3.97;;;19.60;68.70;;;;;;7806654;28;20684;-53
2022/01/27 03:13:22;;;;;;;8.05;4.18;;;19.60;68.70;;;;;;7807155;28;20217;-55
2022/01/27 03:17:09;;;;;;;7.80;4.32;;;19.60;68.80;;;;;;7806740;28;20209;-54
2022/01/27 03:20:55;;;;;;;7.30;3.90;;;19.50;68.70;;;;;;7806426;28;20202;-54
2022/01/27 03:24:40;;;;;;;7.53;4.00;;;19.50;68.70;;;;;;7806759;28;20202;-50
2022/01/27 03:28:28;;;;;;;5.72;4.05;;;19.50;68.70;;;;;;7806362;28;20206;-51
2022/01/27 03:32:13;;;;;;;9.45;4.20;;;19.50;68.70;;;;;;7812139;28;20183;-52
2022/01/27 03:35:59;;;;;;;7.05;4.28;;;19.50;68.70;;;;;;7812395;28;20218;-53
2022/01/27 03:39:44;;;;;;;6.47;4.35;;;19.40;68.60;;;;;;7811992;28;20214;-51
2022/01/27 03:43:30;;;;;;;6.10;3.92;;;19.40;68.80;;;;;;7812201;28;20687;-52
2022/01/27 03:47:15;;;;;;;7.95;3.88;;;19.40;68.80;;;;;;7811980;28;20717;-54
2022/01/27 03:51:01;;;;;;;11.98;4.20;;;19.40;68.70;;;;;;7811677;28;20266;-51
2022/01/27 03:54:46;;;;;;;5.93;3.67;;;19.40;68.70;;;;;;7811793;28;20202;-54
2022/01/27 03:58:33;;;;;;;5.13;3.55;;;19.30;68.70;;;;;;7811485;28;20249;-52
2022/01/27 04:02:19;;;;;;;7.95;4.22;;;19.40;68.80;;;;;;7811772;28;20233;-56
2022/01/27 04:06:09;;;;;;;8.25;3.50;;;19.40;68.80;;;;;;7811522;28;20236;-52
2022/01/27 04:09:55;;;;;;;5.78;3.30;;;19.30;68.70;;;;;;7811358;28;20202;-54
2022/01/27 04:13:40;;;;;;;5.93;3.80;;;19.30;68.70;;;;;;7811415;28;20190;-51
2022/01/27 04:17:26;;;;;;;7.28;4.20;;;19.20;68.70;;;;;;7811145;28;20289;-53
2022/01/27 04:21:12;;;;;;;5.95;3.88;;;19.20;68.70;;;;;;7810975;28;20190;-54
2022/01/27 04:24:58;;;;;;;6.20;4.07;;;19.30;68.70;;;;;;7811068;28;20646;-50
2022/01/27 04:28:44;;;;;;;6.28;3.80;;;19.20;68.70;;;;;;7811099;28;20560;-52
2022/01/27 04:32:37;;;;;;;6.18;3.50;;;19.20;68.80;;;;;;7811130;28;20193;-54
2022/01/27 04:36:34;;;;;;;6.97;4.35;;;19.20;68.80;;;;;;7810671;28;20214;-52
2022/01/27 04:40:25;;;;;;;5.72;3.53;;;19.20;68.70;;;;;;7810037;28;20676;-51
2022/01/27 04:48:38;;;;;;;5.45;3.30;;;19.20;68.70;;;;;;7806082;28;20309;-51
2022/01/27 04:52:25;;;;;;;5.97;3.53;;;19.30;68.70;;;;;;7806644;28;20670;-50
2022/01/27 04:56:14;;;;;;;7.55;4.03;;;19.30;68.60;;;;;;7806351;28;20739;-54
2022/01/27 05:00:00;;;;;;;6.05;3.53;;;19.30;68.60;;;;;;7806268;28;20273;-54
2022/01/27 05:03:55;;;;;;;5.32;3.60;;;19.30;68.50;;;;;;7806387;28;20183;-54
2022/01/27 05:07:40;;;;;;;6.00;4.25;;;19.30;68.50;;;;;;7806062;28;20186;-54
2022/01/27 05:11:33;;;;;;;6.80;3.80;;;19.30;68.40;;;;;;7806234;28;20186;-54
2022/01/27 05:15:18;;;;;;;6.65;4.07;;;19.40;68.50;;;;;;7806210;28;20286;-53
2022/01/27 05:19:04;;;;;;;6.55;3.65;;;19.40;68.40;;;;;;7805578;28;20278;-55
2022/01/27 05:22:49;;;;;;;6.65;4.07;;;19.40;68.50;;;;;;7808403;28;20187;-54
2022/01/27 05:26:36;;;;;;;6.22;3.70;;;19.40;68.50;;;;;;7809474;28;20179;-51
2022/01/27 05:30:21;;;;;;;6.40;4.07;;;19.40;68.40;;;;;;7808926;28;20237;-50
2022/01/27 05:34:07;;;;;;;7.28;4.35;;;19.40;68.30;;;;;;7818871;28;20190;-51
2022/01/27 05:37:53;;;;;;;6.88;4.03;;;19.50;68.50;;;;;;7838638;28;20239;-50
2022/01/27 05:41:38;;;;;;;13.65;3.80;;;19.50;68.40;;;;;;7835503;28;20559;-53
2022/01/27 05:45:24;;;;;;;29.98;4.18;;;19.50;68.20;;;;;;7835724;28;20343;-53
2022/01/27 05:49:10;;;;;;;43.60;5.35;;;19.60;69.40;;;;;;7838089;28;20664;-51
2022/01/27 05:52:55;;;;;;;19.98;4.63;;;19.60;68.50;;;;;;7837758;28;20170;-53
2022/01/27 05:56:41;;;;;;;31.73;4.60;;;19.70;69.00;;;;;;7838170;28;20554;-54
2022/01/27 06:00:27;;;;;;;11.52;4.57;;;19.70;69.40;;;;;;7837793;28;20214;-50
2022/01/27 06:04:12;;;;;;;18.58;4.75;;;19.80;69.50;;;;;;7825114;28;20191;-54
2022/01/27 06:07:58;;;;;;;15.48;4.53;;;19.80;69.50;;;;;;7806741;28;20190;-53
2022/01/27 06:11:43;;;;;;;14.93;4.72;;;19.90;69.50;;;;;;7807027;28;20640;-51
2022/01/27 06:15:29;;;;;;;21.48;4.55;;;19.90;69.50;;;;;;7806986;28;20727;-55
2022/01/27 06:19:15;;;;;;;27.08;4.65;;;19.90;69.50;;;;;;7820129;28;20233;-51
2022/01/27 06:23:00;;;;;;;20.23;4.63;;;19.90;68.30;;;;;;7821575;28;20270;-51
2022/01/27 06:26:46;;;;;;;24.35;4.93;;;19.90;67.70;;;;;;7807085;28;20513;-50
2022/01/27 06:30:34;;;;;;;25.27;5.00;;;19.80;67.10;;;;;;7806420;28;20272;-52
2022/01/27 06:34:20;;;;;;;16.50;4.20;;;19.80;66.40;;;;;;7835898;28;20655;-50
2022/01/27 06:38:05;;;;;;;585.67;35.22;;;19.80;67.00;;;;;;7837071;28;20597;-55
2022/01/27 06:41:51;;;;;;;134.02;10.38;;;19.70;64.50;;;;;;7837398;28;20174;-53
2022/01/27 06:45:36;;;;;;;110.25;9.68;;;19.70;65.00;;;;;;7837029;28;20251;-49
2022/01/27 06:49:22;;;;;;;99.28;8.93;;;19.60;65.80;;;;;;7821237;28;20706;-53
2022/01/27 06:53:08;;;;;;;85.72;7.80;;;19.60;65.60;;;;;;7806397;28;20240;-52
2022/01/27 06:56:54;;;;;;;43.88;7.03;;;19.60;65.70;;;;;;7806667;28;20284;-60
2022/01/27 07:00:40;;;;;;;37.00;5.68;;;19.60;66.00;;;;;;7817088;28;20737;-54
2022/01/27 07:04:25;;;;;;;33.17;5.07;;;19.70;66.80;;;;;;7823445;28;20187;-51
2022/01/27 07:08:11;;;;;;;31.55;5.05;;;19.80;66.40;;;;;;7811992;28;20658;-54
2022/01/27 07:11:57;;;;;;;26.67;5.28;;;19.90;66.40;;;;;;7812168;28;20181;-52
2022/01/27 07:15:42;;;;;;;22.13;5.15;;;19.90;66.10;;;;;;7811894;28;20214;-50
2022/01/27 07:19:27;;;;;;;29.30;4.88;;;19.90;65.80;;;;;;7828293;28;20239;-51
2022/01/27 07:23:13;;;;;;;25.23;5.00;;;20.00;66.60;;;;;;7842719;28;20635;-50
2022/01/27 07:26:59;;;;;;;16.15;3.80;;;20.10;66.80;;;;;;7842862;28;20178;-55
2022/01/27 07:30:44;;;;;;;22.85;5.30;;;20.20;66.90;;;;;;7842292;28;20198;-51
2022/01/27 07:34:30;;;;;;;25.95;3.85;;;20.30;67.00;;;;;;7842160;28;20316;-50
2022/01/27 07:38:15;;;;;;;24.13;3.55;;;20.40;67.00;;;;;;7840708;28;20213;-53
2022/01/27 07:42:01;;;;;;;26.50;4.00;;;20.50;66.80;;;;;;7842398;28;20247;-52
2022/01/27 07:45:47;;;;;;;12.98;3.20;;;20.60;66.80;;;;;;7840012;28;20194;-53
2022/01/27 07:49:33;;;;;;;18.10;4.80;;;20.70;66.80;;;;;;7823502;28;20206;-49
2022/01/27 07:53:19;;;;;;;17.73;5.00;;;20.80;66.90;;;;;;7811289;28;20186;-51
2022/01/27 07:57:04;;;;;;;20.77;5.15;;;20.70;63.00;;;;;;7811007;28;20312;-50
2022/01/27 08:00:50;;;;;;;11.95;3.35;;;20.60;65.40;;;;;;7810464;28;20195;-54
2022/01/27 08:04:35;;;;;;;10.85;3.53;;;20.70;65.70;;;;;;7829535;28;20228;-52
2022/01/27 08:08:21;;;;;;;21.52;3.72;;;20.80;65.70;;;;;;7830203;28;20202;-50
2022/01/27 08:12:07;;;;;;;21.05;3.45;;;20.90;65.70;;;;;;7810582;28;20262;-51
2022/01/27 08:15:53;;;;;;;16.23;2.90;;;21.00;65.70;;;;;;7809796;28;20214;-53
2022/01/27 08:19:38;;;;;;;16.15;3.10;;;21.20;65.60;;;;;;7811999;28;20199;-51
2022/01/27 08:23:24;;;;;;;12.68;3.60;;;21.40;65.50;;;;;;7810376;28;20175;-49
2022/01/27 08:27:16;;;;;;;21.42;2.88;;;21.50;65.50;;;;;;7810193;28;20723;-50
2022/01/27 08:31:03;;;;;;;26.73;4.85;;;21.70;65.70;;;;;;7809481;28;20206;-52
2022/01/27 08:34:48;;;;;;;10.48;2.90;;;21.80;65.40;;;;;;7810011;28;20210;-53
2022/01/27 08:38:36;;;;;;;13.43;2.78;;;22.00;65.50;;;;;;7809211;28;20205;-50
2022/01/27 08:42:22;;;;;;;10.30;2.47;;;22.10;65.40;;;;;;7809759;28;20171;-51
2022/01/27 08:46:07;;;;;;;10.98;2.83;;;22.30;65.30;;;;;;7809385;28;20222;-51
2022/01/27 08:49:53;;;;;;;14.32;2.63;;;22.50;65.20;;;;;;7830543;28;20216;-53
2022/01/27 08:53:38;;;;;;;4.68;2.33;;;22.60;65.20;;;;;;7839124;28;20173;-50
2022/01/27 08:57:24;;;;;;;9.98;2.53;;;22.70;65.20;;;;;;7809344;28;20293;-50
2022/01/27 09:01:10;;;;;;;6.57;2.70;;;22.80;65.10;;;;;;7808051;28;20195;-54
2022/01/27 09:04:55;;;;;;;16.17;2.90;;;22.90;65.10;;;;;;7831289;28;20255;-54
2022/01/27 09:08:41;;;;;;;7.18;2.28;;;23.00;65.20;;;;;;7839271;28;20198;-53
2022/01/27 09:12:26;;;;;;;12.40;2.78;;;23.10;65.20;;;;;;7839756;28;20204;-53
2022/01/27 09:16:12;;;;;;;12.98;3.10;;;23.20;65.10;;;;;;7839397;28;20723;-54
2022/01/27 09:19:58;;;;;;;12.48;2.40;;;23.30;65.00;;;;;;7824549;28;20285;-56
2022/01/27 09:23:43;;;;;;;6.63;2.35;;;23.30;64.90;;;;;;7808560;28;20206;-54
2022/01/27 09:27:29;;;;;;;12.13;2.65;;;23.40;65.10;;;;;;7806812;28;20182;-54
2022/01/27 09:31:14;;;;;;;10.48;2.25;;;23.40;65.10;;;;;;7808022;28;20222;-53
2022/01/27 09:35:00;;;;;;;8.88;2.33;;;23.40;64.90;;;;;;7831597;28;20214;-53
2022/01/27 09:38:45;;;;;;;19.13;3.03;;;23.40;65.10;;;;;;7838662;28;20577;-53
2022/01/27 09:42:33;;;;;;;10.93;2.75;;;23.40;64.90;;;;;;7813424;28;20179;-50
2022/01/27 09:46:21;;;;;;;34.33;2.80;;;23.30;65.00;;;;;;7806522;28;20293;-55
2022/01/27 09:50:22;;;;;;;14.18;2.83;;;23.30;65.00;;;;;;7830469;28;20206;-53
2022/01/27 09:54:08;;;;;;;5.43;2.28;;;23.30;65.20;;;;;;7838461;28;20554;-52
2022/01/27 09:57:54;;;;;;;15.85;2.15;;;23.20;65.40;;;;;;7837905;28;20202;-52
2022/01/27 10:01:53;;;;;;;10.57;2.30;;;23.20;65.40;;;;;;7838478;28;20174;-51
2022/01/27 10:05:39;;;;;;;12.00;2.65;;;23.20;65.60;;;;;;7808956;28;20182;-52
2022/01/27 10:09:28;;;;;;;13.65;2.45;;;23.20;65.80;;;;;;7806616;28;20202;-50
2022/01/27 10:13:38;;;;;;;14.93;2.90;;;23.00;65.70;;;;;;7807219;28;20178;-51
2022/01/27 10:17:23;;;;;;;11.68;2.70;;;23.00;66.00;;;;;;7809874;28;20694;-56
2022/01/27 10:21:09;;;;;;;13.38;2.60;;;22.90;65.80;;;;;;7837567;28;20621;-49
2022/01/27 10:25:08;;;;;;;19.05;2.30;;;22.90;65.80;;;;;;7837975;28;20204;-51
2022/01/27 10:29:13;;;;;;;20.45;3.20;;;22.90;66.20;;;;;;7834595;28;20205;-54
2022/01/27 10:33:03;;;;;;;8.80;2.50;;;22.90;66.30;;;;;;7829944;28;20290;-52
2022/01/27 10:36:49;;;;;;;8.30;2.20;;;22.90;66.30;;;;;;7806618;28;20261;-49
2022/01/27 10:40:36;;;;;;;8.77;2.47;;;22.90;66.50;;;;;;7805447;28;20202;-50
2022/01/27 10:44:23;;;;;;;5.72;1.85;;;22.80;66.40;;;;;;7806190;28;20624;-49
2022/01/27 10:48:22;;;;;;;11.90;2.45;;;22.80;66.40;;;;;;7815423;28;20347;-53
2022/01/27 10:52:27;;;;;;;10.20;3.85;;;22.80;66.50;;;;;;7837249;28;20165;-50
2022/01/27 10:56:41;;;;;;;10.20;3.55;;;22.50;65.10;;;;;;7836911;28;20951;-51
2022/01/27 11:00:27;;;;;;;8.63;3.35;;;22.40;65.10;;;;;;7824198;28;20233;-51
2022/01/27 11:04:14;;;;;;;7.93;3.13;;;22.40;65.30;;;;;;7824895;28;20174;-54
2022/01/27 11:08:00;;;;;;;7.22;2.90;;;22.50;65.60;;;;;;7836410;28;20201;-50
2022/01/27 11:11:48;;;;;;;9.10;2.80;;;22.50;65.70;;;;;;7836210;28;20320;-50
2022/01/27 11:15:34;;;;;;;8.15;3.08;;;22.50;65.60;;;;;;7836985;28;20300;-54
2022/01/27 11:27:12;;;;;;;7.65;2.50;;;22.40;66.00;;;;;;7806027;28;20175;-51
2022/01/27 11:31:11;;;;;;;8.43;2.83;;;22.50;66.10;;;;;;7805134;28;20298;-54
2022/01/27 11:34:56;;;;;;;9.10;2.85;;;22.50;66.10;;;;;;7830822;28;20255;-54
2022/01/27 11:38:43;;;;;;;14.98;2.78;;;22.50;66.10;;;;;;7835989;28;20202;-51
2022/01/27 11:42:34;;;;;;;10.38;2.50;;;22.60;66.40;;;;;;7836449;28;20654;-55
2022/01/27 11:46:22;;;;;;;14.23;2.83;;;22.70;66.50;;;;;;7836342;28;20198;-52
2022/01/27 11:50:30;;;;;;;9.73;2.65;;;22.60;66.40;;;;;;7818885;28;20206;-50
2022/01/27 11:54:26;;;;;;;12.93;2.30;;;22.70;66.50;;;;;;7842246;28;20228;-50
2022/01/27 11:58:21;;;;;;;9.07;2.30;;;22.60;66.30;;;;;;7841347;28;20606;-54
2022/01/27 12:02:07;;;;;;;14.95;2.50;;;22.70;66.20;;;;;;7839192;28;20264;-52
2022/01/27 12:06:17;;;;;;;9.40;2.30;;;22.70;66.10;;;;;;7811134;28;20182;-50
2022/01/27 12:10:55;;;;;;;7.72;2.60;;;22.70;65.90;;;;;;7809786;28;20281;-51
2022/01/27 12:14:42;;;;;;;6.60;2.60;;;22.70;65.80;;;;;;7806064;28;20194;-51
2022/01/27 12:18:37;;;;;;;4.03;2.53;;;22.80;65.90;;;;;;7810123;28;20253;-51
2022/01/27 12:22:52;;;;;;;10.57;2.10;;;22.80;66.00;;;;;;7810273;28;20179;-51
2022/01/27 12:27:05;;;;;;;10.30;2.65;;;22.80;66.00;;;;;;7809767;28;20179;-54
2022/01/27 12:30:55;;;;;;;9.02;2.40;;;22.80;66.30;;;;;;7809072;28;20274;-52
2022/01/27 12:34:45;;;;;;;6.72;2.40;;;22.80;66.20;;;;;;7834041;28;20182;-50
2022/01/27 12:38:37;;;;;;;7.40;2.22;;;22.70;66.40;;;;;;7840414;28;20614;-51
2022/01/27 12:42:38;;;;;;;4.65;2.30;;;22.80;66.50;;;;;;7813938;28;20182;-54
2022/01/27 12:46:26;;;;;;;3.40;1.85;;;22.70;66.70;;;;;;7809799;28;20214;-55
2022/01/27 12:50:19;;;;;;;5.15;1.90;;;22.70;66.70;;;;;;7837590;28;20218;-53
2022/01/27 12:54:05;;;;;;;10.15;2.47;;;22.70;66.90;;;;;;7840440;28;20260;-53
2022/01/27 12:57:54;;;;;;;2.65;1.80;;;22.70;66.60;;;;;;7839689;28;20213;-53
2022/01/27 13:01:40;;;;;;;7.10;2.30;;;22.70;66.70;;;;;;7839646;28;20612;-51
2022/01/27 13:05:38;;;;;;;7.82;2.22;;;22.60;66.70;;;;;;7809229;28;20179;-53
2022/01/27 13:09:26;;;;;;;3.60;2.20;;;22.60;66.50;;;;;;7808422;28;20210;-56
2022/01/27 13:13:21;;;;;;;3.13;2.28;;;22.70;66.70;;;;;;7808997;28;20190;-53
2022/01/27 13:17:10;;;;;;;9.35;2.40;;;22.80;66.50;;;;;;7812549;28;20215;-50
2022/01/27 13:20:58;;;;;;;7.55;2.05;;;22.90;66.50;;;;;;7838996;28;20198;-52
2022/01/27 13:24:46;;;;;;;6.78;2.30;;;23.10;66.40;;;;;;7839250;28;20627;-55
2022/01/27 13:28:35;;;;;;;3.85;2.17;;;23.30;66.30;;;;;;7839139;28;20572;-51
2022/01/27 13:32:21;;;;;;;4.63;2.40;;;23.40;66.00;;;;;;7833540;28;20186;-57
2022/01/27 13:36:19;;;;;;;5.60;2.58;;;23.60;65.90;;;;;;7814961;28;20260;-51
2022/01/27 13:44:12;;;;;;;3.28;2.00;;;23.90;65.60;;;;;;7839213;28;20217;-51
2022/01/27 13:48:16;;;;;;;7.47;3.08;;;24.10;65.40;;;;;;7826602;28;20309;-51
2022/01/27 13:52:12;;;;;;;5.22;2.45;;;24.20;65.20;;;;;;7807261;28;20193;-54
2022/01/27 13:56:02;;;;;;;5.88;2.50;;;24.30;64.90;;;;;;7831795;28;20209;-52
2022/01/27 13:59:55;;;;;;;2.75;2.17;;;24.30;64.90;;;;;;7838085;28;20190;-55
2022/01/27 14:03:46;;;;;;;5.25;2.80;;;24.40;64.10;;;;;;7838251;28;20193;-54
2022/01/27 14:07:34;;;;;;;5.53;2.50;;;24.20;63.50;;;;;;7838037;28;20671;-56
2022/01/27 14:11:36;;;;;;;4.07;2.80;;;24.30;63.80;;;;;;7837956;28;20285;-51
2022/01/27 14:15:54;;;;;;;3.63;2.08;;;24.30;64.10;;;;;;7837251;28;20209;-51
2022/01/27 14:19:41;;;;;;;5.72;2.10;;;24.30;64.40;;;;;;7811182;28;20203;-53
2022/01/27 14:23:58;;;;;;;4.85;2.00;;;24.30;64.50;;;;;;7806994;28;20198;-54
2022/01/27 14:27:44;;;;;;;3.72;2.28;;;24.30;64.70;;;;;;7806342;28;20189;-58
2022/01/27 14:31:31;;;;;;;9.35;2.42;;;24.20;64.90;;;;;;7820355;28;20231;-50
2022/01/27 14:35:17;;;;;;;4.72;2.13;;;24.20;64.80;;;;;;7806590;28;20205;-53
2022/01/27 14:39:04;;;;;;;3.53;1.88;;;24.20;65.00;;;;;;7805938;28;20281;-52
2022/01/27 14:42:51;;;;;;;3.40;1.85;;;24.10;65.20;;;;;;7808171;28;20649;-52
2022/01/27 14:46:41;;;;;;;4.72;2.03;;;24.10;65.10;;;;;;7806399;28;20199;-51
2022/01/27 14:50:27;;;;;;;3.72;1.98;;;24.00;65.30;;;;;;7806557;28;20199;-51
2022/01/27 14:54:13;;;;;;;9.35;2.15;;;23.90;65.40;;;;;;7838296;28;20186;-55
2022/01/27 14:57:59;;;;;;;8.35;1.73;;;23.90;65.60;;;;;;7837719;28;20264;-52
2022/01/27 15:01:45;;;;;;;5.10;2.22;;;23.80;65.70;;;;;;7838117;28;20223;-53
2022/01/27 15:05:30;;;;;;;3.33;1.77;;;23.80;65.70;;;;;;7837671;28;20190;-54
2022/01/27 15:09:16;;;;;;;13.20;2.35;;;23.80;65.80;;;;;;7837513;28;20198;-55
2022/01/27 15:13:01;;;;;;;11.52;2.50;;;23.70;65.80;;;;;;7837779;28;20197;-53
2022/01/27 15:20:55;;;;;;;7.43;1.75;;;23.60;65.70;;;;;;7837360;28;20186;-54
2022/01/27 15:24:43;;;;;;;63.58;3.72;;;23.60;65.60;;;;;;7839342;28;20706;-55
2022/01/27 15:28:29;;;;;;;39.08;3.30;;;23.50;65.50;;;;;;7843387;28;20863;-54
2022/01/27 15:32:18;;;;;;;29.38;3.35;;;23.50;65.40;;;;;;7843382;28;20551;-52
2022/01/27 15:36:04;;;;;;;14.48;2.08;;;23.40;65.40;;;;;;7841616;28;20221;-57
2022/01/27 15:39:55;;;;;;;20.52;2.15;;;23.40;65.40;;;;;;7812244;28;20203;-54
2022/01/27 15:43:41;;;;;;;10.73;1.90;;;23.40;65.60;;;;;;7812269;28;20178;-56
2022/01/27 15:47:27;;;;;;;9.77;1.95;;;23.30;65.50;;;;;;7811993;28;20199;-55
2022/01/27 15:51:13;;;;;;;16.35;1.98;;;23.30;65.50;;;;;;7825709;28;20699;-54
2022/01/27 15:55:03;;;;;;;8.00;1.63;;;23.30;65.70;;;;;;7842139;28;20573;-56
2022/01/27 15:58:49;;;;;;;3.28;1.42;;;23.20;65.60;;;;;;7842651;28;20200;-54
2022/01/27 16:02:35;;;;;;;5.95;1.55;;;23.20;65.70;;;;;;7842524;28;20182;-56
2022/01/27 16:06:21;;;;;;;13.98;1.85;;;23.20;65.70;;;;;;7842814;28;20182;-54
2022/01/27 16:10:07;;;;;;;9.85;1.95;;;23.20;65.70;;;;;;7839971;28;20243;-52
2022/01/27 16:13:53;;;;;;;8.02;1.92;;;23.10;65.60;;;;;;7842211;28;20189;-51
2022/01/27 16:17:38;;;;;;;7.15;1.88;;;23.00;65.70;;;;;;7840335;28;20205;-55
2022/01/27 16:21:25;;;;;;;11.70;1.90;;;23.00;65.80;;;;;;7809352;28;20194;-54
2022/01/27 16:25:12;;;;;;;10.88;1.88;;;23.00;65.80;;;;;;7807557;28;20567;-52
2022/01/27 16:28:58;;;;;;;4.43;1.50;;;23.00;65.70;;;;;;7809816;28;20209;-54
2022/01/27 16:32:44;;;;;;;8.05;1.60;;;23.00;65.50;;;;;;7809838;28;20197;-51
2022/01/27 16:36:30;;;;;;;15.18;1.80;;;23.00;65.40;;;;;;7809155;28;20214;-53
2022/01/27 16:40:17;;;;;;;20.23;1.95;;;23.00;65.40;;;;;;7809524;28;20622;-54
2022/01/27 16:44:02;;;;;;;14.25;1.73;;;23.00;65.40;;;;;;7815337;28;20178;-54
2022/01/27 16:47:48;;;;;;;5.25;1.50;;;23.00;65.40;;;;;;7839600;28;20217;-51
2022/01/27 16:51:34;;;;;;;6.10;1.88;;;23.00;65.30;;;;;;7821595;28;20198;-51
2022/01/27 16:55:20;;;;;;;10.27;1.55;;;23.00;65.30;;;;;;7839236;28;20603;-52
2022/01/27 16:59:05;;;;;;;9.10;1.50;;;23.10;65.20;;;;;;7833860;28;20272;-53
2022/01/27 17:02:51;;;;;;;12.43;1.20;;;23.20;65.20;;;;;;7807852;28;20920;-55
2022/01/27 17:06:37;;;;;;;7.13;1.30;;;23.20;65.20;;;;;;7808092;28;20213;-54
2022/01/27 17:10:22;;;;;;;8.02;1.70;;;23.30;65.20;;;;;;7812345;28;20205;-56
2022/01/27 17:14:08;;;;;;;6.53;1.50;;;23.30;65.00;;;;;;7839339;28;20212;-55
2022/01/27 17:17:53;;;;;;;8.57;1.50;;;23.30;65.20;;;;;;7839032;28;20293;-56
2022/01/27 17:21:39;;;;;;;14.77;1.55;;;23.40;65.10;;;;;;7838393;28;20170;-55
2022/01/27 17:25:26;;;;;;;7.00;1.23;;;23.40;65.00;;;;;;7839009;28;20205;-54
2022/01/27 17:29:12;;;;;;;7.50;1.52;;;23.40;65.00;;;;;;7832803;28;20210;-54
2022/01/27 17:32:57;;;;;;;4.13;1.30;;;23.40;64.90;;;;;;7808269;28;20304;-54
2022/01/27 17:36:43;;;;;;;5.47;1.30;;;23.40;64.80;;;;;;7807855;28;20752;-53
2022/01/27 17:40:28;;;;;;;6.50;1.20;;;23.40;64.80;;;;;;7808009;28;20199;-56
2022/01/27 17:44:16;;;;;;;4.63;1.20;;;23.40;64.80;;;;;;7808170;28;20185;-56
2022/01/27 17:48:02;;;;;;;3.17;1.27;;;23.40;64.60;;;;;;7806453;28;20209;-56
2022/01/27 17:51:48;;;;;;;4.00;1.30;;;23.40;65.00;;;;;;7824526;28;20182;-54
2022/01/27 17:55:33;;;;;;;5.72;1.30;;;23.30;65.10;;;;;;7838654;28;20206;-55
2022/01/27 17:59:19;;;;;;;3.15;1.30;;;23.30;65.20;;;;;;7830531;28;20665;-56
2022/01/27 18:03:07;;;;;;;13.68;1.50;;;23.30;65.30;;;;;;7806842;28;20210;-55
2022/01/27 18:06:52;;;;;;;9.18;1.70;;;23.30;65.40;;;;;;7807323;28;20375;-55
2022/01/27 18:10:38;;;;;;;7.40;1.40;;;23.40;66.20;;;;;;7807140;28;20195;-52
2022/01/27 18:14:26;;;;;;;14.05;1.77;;;23.40;66.60;;;;;;7806967;28;20240;-54
2022/01/27 18:18:12;;;;;;;9.25;1.77;;;23.30;65.70;;;;;;7806538;28;20206;-54
2022/01/27 18:21:58;;;;;;;9.82;2.08;;;23.20;66.20;;;;;;7806032;28;20187;-51
2022/01/27 18:25:43;;;;;;;15.30;1.95;;;23.20;66.40;;;;;;7806619;28;20723;-54
2022/01/27 18:29:29;;;;;;;21.90;2.63;;;23.20;66.50;;;;;;7811299;28;20223;-55
2022/01/27 18:33:14;;;;;;;7.43;2.15;;;23.20;66.60;;;;;;7806414;28;20209;-55
2022/01/27 18:37:00;;;;;;;17.55;2.17;;;23.20;66.70;;;;;;7807181;28;20297;-55
2022/01/27 18:40:45;;;;;;;30.50;2.42;;;23.10;66.70;;;;;;7805558;28;20205;-53
2022/01/27 18:44:31;;;;;;;11.07;1.80;;;23.10;66.70;;;;;;7805510;28;20167;-54
2022/01/27 18:48:17;;;;;;;14.05;2.38;;;23.10;67.00;;;;;;7827125;28;20213;-52
2022/01/27 18:52:03;;;;;;;19.77;2.30;;;23.00;66.80;;;;;;7834560;28;20201;-52
2022/01/27 18:55:48;;;;;;;20.20;3.28;;;23.00;66.70;;;;;;7805919;28;20260;-53
2022/01/27 18:59:34;;;;;;;18.38;2.10;;;22.90;66.50;;;;;;7818678;28;20285;-55
2022/01/27 19:03:19;;;;;;;13.68;2.60;;;22.90;66.90;;;;;;7836731;28;20224;-55
2022/01/27 19:07:05;;;;;;;13.05;1.95;;;22.90;67.10;;;;;;7817449;28;20190;-56
2022/01/27 19:10:53;;;;;;;20.55;2.78;;;22.90;67.10;;;;;;7817876;28;20209;-55
2022/01/27 19:14:39;;;;;;;32.50;2.28;;;22.90;67.40;;;;;;7815876;28;20194;-56
2022/01/27 19:18:25;;;;;;;27.33;3.17;;;22.90;67.10;;;;;;7816348;28;20195;-55
2022/01/27 19:22:11;;;;;;;11.40;3.13;;;22.70;62.90;;;;;;7815676;28;20190;-55
2022/01/27 19:25:57;;;;;;;14.15;2.70;;;22.50;64.80;;;;;;7815975;28;20185;-57
2022/01/27 19:29:45;;;;;;;19.70;2.85;;;22.50;65.20;;;;;;7828481;28;20619;-55
2022/01/27 19:33:33;;;;;;;17.13;3.05;;;22.50;65.70;;;;;;7846841;28;20186;-56
2022/01/27 19:37:20;;;;;;;17.02;2.95;;;22.50;65.50;;;;;;7846795;28;20585;-53
2022/01/27 19:41:06;;;;;;;19.27;3.40;;;22.60;65.50;;;;;;7846363;28;20201;-51
2022/01/27 19:44:52;;;;;;;26.35;2.78;;;22.70;66.70;;;;;;7832182;28;20229;-56
2022/01/27 19:48:38;;;;;;;19.88;2.30;;;22.90;67.20;;;;;;7815583;28;20202;-55
2022/01/27 19:52:29;;;;;;;13.73;2.42;;;23.00;67.50;;;;;;7815881;28;20163;-56
2022/01/27 19:56:15;;;;;;;7.78;2.00;;;23.10;67.60;;;;;;7815724;28;20565;-53
2022/01/27 20:00:00;;;;;;;14.38;1.52;;;23.30;67.80;;;;;;7830399;28;20198;-55
2022/01/27 20:03:46;;;;;;;12.25;2.10;;;23.40;67.90;;;;;;7845729;28;20178;-56
2022/01/27 20:07:34;;;;;;;12.60;2.30;;;23.50;68.00;;;;;;7846104;28;20261;-55
2022/01/27 20:11:23;;;;;;;10.82;2.13;;;23.50;68.20;;;;;;7843807;28;20202;-54
2022/01/27 20:15:09;;;;;;;6.13;1.70;;;23.70;68.10;;;;;;7823984;28;20206;-51
2022/01/27 20:18:56;;;;;;;11.63;1.95;;;23.80;68.00;;;;;;7810094;28;20198;-55
2022/01/27 20:22:41;;;;;;;6.25;1.98;;;23.90;67.90;;;;;;7809720;28;20175;-51
2022/01/27 20:26:27;;;;;;;9.32;1.70;;;23.90;67.70;;;;;;7809594;28;20182;-51
2022/01/27 20:30:15;;;;;;;11.40;2.20;;;24.00;67.80;;;;;;7827093;28;20206;-52